createdAt,value
2023-04-21T00:00:16.437Z,8.64
2023-04-21T00:02:21.916Z,8.63
2023-04-21T00:04:27.499Z,8.63
2023-04-21T00:06:32.924Z,8.62
2023-04-21T00:08:41.050Z,8.66
2023-04-21T00:10:47.112Z,8.70
2023-04-21T00:12:52.112Z,8.70
2023-04-21T00:14:57.363Z,8.67
2023-04-21T00:17:02.607Z,8.67
2023-04-21T00:19:08.668Z,8.66
2023-04-21T00:21:14.027Z,8.63
2023-04-21T00:23:19.036Z,8.60
2023-04-21T00:25:27.571Z,8.60
2023-04-21T00:27:32.593Z,8.57
2023-04-21T00:29:37.606Z,8.57
2023-04-21T00:31:42.686Z,8.57
2023-04-21T00:33:47.945Z,8.61
2023-04-21T00:35:55.114Z,8.57
2023-04-21T00:38:00.173Z,8.57
2023-04-21T00:40:05.962Z,8.56
2023-04-21T00:42:13.566Z,8.56
2023-04-21T00:44:18.583Z,8.56
2023-04-21T00:46:23.638Z,8.55
2023-04-21T00:48:28.921Z,8.54
2023-04-21T00:50:35.065Z,8.54
2023-04-21T00:52:42.011Z,8.63
2023-04-21T00:54:47.514Z,8.55
2023-04-21T00:56:53.470Z,8.57
2023-04-21T00:59:02.690Z,8.57
2023-04-21T01:01:08.841Z,8.56
2023-04-21T01:03:14.499Z,8.55
2023-04-21T01:05:20.990Z,8.47
2023-04-21T01:07:28.035Z,8.53
2023-04-21T01:09:34.801Z,8.53
2023-04-21T01:11:42.589Z,8.52
2023-04-21T01:13:48.024Z,8.50
2023-04-21T01:15:55.847Z,8.49
2023-04-21T01:18:01.321Z,8.49
2023-04-21T01:20:12.656Z,8.49
2023-04-21T01:22:20.824Z,8.47
2023-04-21T01:24:27.273Z,8.46
2023-04-21T01:26:32.522Z,8.45
2023-04-21T01:28:38.252Z,8.45
2023-04-21T01:30:43.267Z,8.65
2023-04-21T01:32:48.388Z,8.60
2023-04-21T01:34:53.873Z,8.65
2023-04-21T01:36:59.595Z,8.58
2023-04-21T01:39:07.529Z,8.54
2023-04-21T01:41:13.173Z,8.50
2023-04-21T01:43:19.676Z,8.45
2023-04-21T01:45:24.778Z,8.42
2023-04-21T01:47:30.335Z,8.42
2023-04-21T01:49:35.460Z,8.40
2023-04-21T01:51:41.082Z,8.36
2023-04-21T01:53:46.123Z,8.34
2023-04-21T01:55:54.004Z,8.27
2023-04-21T01:58:00.434Z,8.22
2023-04-21T02:00:05.680Z,8.18
2023-04-21T02:02:20.106Z,8.13
2023-04-21T02:04:25.328Z,8.07
2023-04-21T02:06:31.425Z,7.99
2023-04-21T02:08:37.706Z,7.93
2023-04-21T02:10:42.792Z,7.88
2023-04-21T02:12:53.353Z,7.87
2023-04-21T02:14:58.433Z,7.83
2023-04-21T02:17:04.071Z,7.72
2023-04-21T02:19:09.156Z,7.69
2023-04-21T02:21:14.487Z,7.70
2023-04-21T02:23:20.646Z,7.65
2023-04-21T02:25:26.111Z,7.57
2023-04-21T02:27:31.411Z,7.55
2023-04-21T02:29:40.892Z,7.54
2023-04-21T02:31:58.874Z,7.45
2023-04-21T02:34:08.983Z,7.35
2023-04-21T02:36:16.853Z,7.34
2023-04-21T02:38:22.113Z,7.29
2023-04-21T02:40:27.281Z,7.24
2023-04-21T02:42:32.553Z,7.25
2023-04-21T02:44:40.250Z,7.26
2023-04-21T02:46:46.035Z,7.24
2023-04-21T02:48:52.614Z,7.19
2023-04-21T02:50:57.641Z,7.11
2023-04-21T02:53:03.186Z,7.02
2023-04-21T02:55:09.765Z,6.99
2023-04-21T02:57:14.754Z,6.95
2023-04-21T02:59:20.171Z,6.90
2023-04-21T03:01:28.309Z,6.91
2023-04-21T03:03:34.911Z,6.92
2023-04-21T03:05:40.086Z,6.93
2023-04-21T03:07:45.134Z,6.93
2023-04-21T03:09:50.122Z,6.99
2023-04-21T03:11:56.172Z,6.97
2023-04-21T03:14:01.537Z,7.08
2023-04-21T03:16:08.134Z,7.08
2023-04-21T03:18:16.733Z,7.14
2023-04-21T03:20:21.898Z,7.14
2023-04-21T03:22:26.922Z,7.18
2023-04-21T03:24:31.927Z,7.23
2023-04-21T03:26:37.321Z,7.27
2023-04-21T03:28:43.384Z,7.34
2023-04-21T03:30:48.402Z,7.49
2023-04-21T03:32:54.032Z,7.57
2023-04-21T03:35:01.744Z,7.57
2023-04-21T03:37:07.033Z,7.55
2023-04-21T03:39:19.807Z,7.62
2023-04-21T03:41:26.283Z,7.72
2023-04-21T03:43:31.677Z,7.74
2023-04-21T03:45:38.806Z,7.76
2023-04-21T03:47:44.106Z,7.78
2023-04-21T03:49:49.338Z,7.75
2023-04-21T03:51:56.893Z,7.73
2023-04-21T03:54:02.281Z,7.74
2023-04-21T03:56:08.335Z,7.76
2023-04-21T03:58:13.825Z,7.78
2023-04-21T04:00:19.225Z,7.82
2023-04-21T04:02:24.366Z,7.92
2023-04-21T04:04:29.540Z,7.89
2023-04-21T04:06:35.872Z,7.89
2023-04-21T04:08:43.889Z,7.91
2023-04-21T04:10:48.909Z,7.89
2023-04-21T04:12:55.353Z,7.93
2023-04-21T04:15:00.386Z,7.93
2023-04-21T04:17:05.405Z,7.95
2023-04-21T04:19:11.044Z,7.96
2023-04-21T04:21:16.054Z,7.98
2023-04-21T04:23:22.021Z,8.20
2023-04-21T04:25:29.767Z,8.19
2023-04-21T04:27:34.831Z,8.20
2023-04-21T04:29:39.911Z,8.16
2023-04-21T04:31:45.043Z,8.13
2023-04-21T04:33:51.647Z,8.19
2023-04-21T04:35:58.438Z,8.16
2023-04-21T04:38:04.424Z,8.27
2023-04-21T04:40:13.470Z,8.27
2023-04-21T04:42:21.048Z,8.23
2023-04-21T04:44:26.342Z,8.24
2023-04-21T04:46:31.407Z,8.20
2023-04-21T04:48:36.453Z,8.23
2023-04-21T04:50:41.677Z,8.24
2023-04-21T04:52:47.719Z,8.25
2023-04-21T04:54:52.761Z,8.27
2023-04-21T04:56:58.043Z,8.28
2023-04-21T04:59:05.797Z,8.34
2023-04-21T05:01:20.678Z,8.35
2023-04-21T05:03:25.971Z,8.32
2023-04-21T05:05:31.130Z,8.32
2023-04-21T05:07:36.681Z,8.31
2023-04-21T05:09:41.717Z,8.35
2023-04-21T05:11:46.832Z,8.40
2023-04-21T05:13:52.021Z,8.45
2023-04-21T05:16:03.585Z,8.47
2023-04-21T05:18:09.458Z,8.53
2023-04-21T05:20:15.348Z,8.51
2023-04-21T05:22:20.390Z,8.50
2023-04-21T05:24:25.468Z,8.52
2023-04-21T05:26:32.189Z,8.53
2023-04-21T05:28:37.370Z,8.57
2023-04-21T05:30:42.650Z,8.62
2023-04-21T05:32:50.820Z,8.60
2023-04-21T05:34:56.397Z,8.74
2023-04-21T05:37:01.419Z,8.92
2023-04-21T05:39:06.702Z,8.94
2023-04-21T05:41:12.094Z,8.87
2023-04-21T05:43:17.094Z,8.82
2023-04-21T05:45:22.684Z,8.77
2023-04-21T05:47:27.706Z,8.81
2023-04-21T05:49:35.654Z,8.94
2023-04-21T05:51:40.763Z,9.04
2023-04-21T05:53:49.240Z,9.02
2023-04-21T05:55:54.498Z,8.97
2023-04-21T05:57:59.748Z,9.13
2023-04-21T06:00:05.318Z,9.20
2023-04-21T06:02:11.001Z,9.22
2023-04-21T06:04:16.438Z,9.36
2023-04-21T06:06:24.287Z,9.43
2023-04-21T06:08:29.444Z,9.43
2023-04-21T06:10:35.293Z,9.55
2023-04-21T06:12:40.356Z,9.71
2023-04-21T06:14:45.608Z,9.87
2023-04-21T06:16:50.799Z,9.87
2023-04-21T06:18:56.116Z,10.05
2023-04-21T06:21:01.294Z,10.15
2023-04-21T06:23:09.696Z,10.29
2023-04-21T06:25:14.807Z,10.31
2023-04-21T06:27:19.987Z,10.45
2023-04-21T06:29:25.419Z,10.52
2023-04-21T06:31:31.159Z,10.87
2023-04-21T06:33:36.246Z,10.97
2023-04-21T06:35:41.565Z,10.97
2023-04-21T06:37:46.568Z,11.11
2023-04-21T06:39:54.139Z,11.12
2023-04-21T06:41:59.710Z,11.05
2023-04-21T06:44:05.682Z,11.11
2023-04-21T06:46:11.175Z,11.36
2023-04-21T06:48:16.800Z,11.41
2023-04-21T06:50:22.112Z,11.25
2023-04-21T06:52:27.241Z,11.53
2023-04-21T06:54:32.367Z,11.54
2023-04-21T06:56:41.938Z,11.45
2023-04-21T06:58:47.215Z,11.57
2023-04-21T07:00:52.332Z,11.64
2023-04-21T07:02:57.502Z,11.70
2023-04-21T07:05:02.854Z,11.72
2023-04-21T07:07:07.962Z,11.54
2023-04-21T07:09:12.987Z,11.81
2023-04-21T07:11:18.132Z,11.81
2023-04-21T07:13:25.728Z,11.93
2023-04-21T07:15:31.044Z,11.84
2023-04-21T07:17:36.106Z,11.86
2023-04-21T07:19:41.286Z,12.09
2023-04-21T07:21:46.374Z,12.51
2023-04-21T07:23:51.429Z,12.48
2023-04-21T07:25:56.449Z,12.46
2023-04-21T07:28:03.035Z,12.39
2023-04-21T07:30:12.173Z,12.44
2023-04-21T07:32:17.189Z,12.82
2023-04-21T07:34:22.192Z,13.01
2023-04-21T07:36:30.546Z,12.96
2023-04-21T07:38:36.225Z,13.05
2023-04-21T07:40:41.226Z,13.26
2023-04-21T07:42:46.549Z,13.69
2023-04-21T07:44:51.703Z,13.87
2023-04-21T07:46:59.304Z,14.15
2023-04-21T07:49:04.486Z,14.32
2023-04-21T07:51:09.719Z,14.63
2023-04-21T07:53:14.723Z,14.79
2023-04-21T07:55:20.036Z,15.05
2023-04-21T07:57:25.421Z,15.33
2023-04-21T07:59:30.669Z,15.74
2023-04-21T08:01:35.688Z,15.83
2023-04-21T08:03:43.422Z,15.97
2023-04-21T08:05:48.708Z,16.13
2023-04-21T08:07:53.750Z,16.34
2023-04-21T08:09:59.038Z,16.83
2023-04-21T08:12:04.335Z,16.78
2023-04-21T08:14:10.252Z,17.27
2023-04-21T08:16:15.283Z,17.41
2023-04-21T08:18:22.457Z,17.36
2023-04-21T08:20:30.546Z,17.41
2023-04-21T08:22:36.844Z,17.55
2023-04-21T08:24:41.932Z,17.83
2023-04-21T08:26:47.672Z,18.33
2023-04-21T08:28:53.103Z,18.35
2023-04-21T08:30:58.154Z,18.60
2023-04-21T08:33:03.600Z,18.92
2023-04-21T08:35:10.293Z,18.97
2023-04-21T08:37:18.607Z,18.87
2023-04-21T08:39:23.631Z,19.00
2023-04-21T08:41:29.296Z,18.45
2023-04-21T08:43:34.928Z,18.64
2023-04-21T08:45:40.029Z,18.73
2023-04-21T08:47:45.506Z,18.83
2023-04-21T08:49:54.364Z,18.98
2023-04-21T08:51:59.790Z,19.33
2023-04-21T08:54:08.253Z,19.08
2023-04-21T08:56:13.309Z,19.03
2023-04-21T08:58:18.568Z,19.23
2023-04-21T09:00:24.620Z,19.37
2023-04-21T09:02:31.019Z,19.22
2023-04-21T09:04:36.307Z,19.48
2023-04-21T09:06:46.431Z,19.81
2023-04-21T09:08:58.071Z,19.61
2023-04-21T09:11:06.033Z,19.21
2023-04-21T09:13:11.915Z,19.10
2023-04-21T09:15:16.934Z,19.20
2023-04-21T09:17:25.155Z,19.36
2023-04-21T09:19:30.430Z,19.72
2023-04-21T09:21:35.471Z,19.90
2023-04-21T09:23:49.074Z,19.98
2023-04-21T09:25:54.588Z,19.55
2023-04-21T09:28:04.229Z,19.45
2023-04-21T09:30:12.008Z,18.83
2023-04-21T09:32:21.299Z,19.03
2023-04-21T09:34:28.678Z,19.67
2023-04-21T09:36:34.522Z,19.87
2023-04-21T09:38:40.696Z,19.96
2023-04-21T09:40:45.707Z,19.65
2023-04-21T09:42:50.721Z,19.37
2023-04-21T09:45:10.907Z,19.17
2023-04-21T09:47:24.382Z,19.64
2023-04-21T09:49:34.190Z,19.38
2023-04-21T09:52:06.029Z,19.10
2023-04-21T09:54:28.515Z,19.10
2023-04-21T09:56:39.769Z,18.93
2023-04-21T09:58:50.686Z,18.90
2023-04-21T10:01:00.139Z,18.68
2023-04-21T10:03:11.645Z,18.81
2023-04-21T10:05:17.150Z,19.03
2023-04-21T10:07:22.468Z,18.90
2023-04-21T10:09:30.353Z,18.79
2023-04-21T10:11:35.529Z,19.16
2023-04-21T10:13:42.756Z,19.88
2023-04-21T10:15:47.858Z,19.98
2023-04-21T10:17:55.763Z,20.08
2023-04-21T10:20:01.562Z,20.26
2023-04-21T10:22:08.841Z,20.73
2023-04-21T10:24:18.090Z,20.75
2023-04-21T10:26:25.650Z,20.77
2023-04-21T10:28:50.745Z,21.00
2023-04-21T10:31:32.255Z,20.54
2023-04-21T10:33:42.864Z,20.87
2023-04-21T10:36:03.326Z,20.69
2023-04-21T10:38:10.178Z,20.07
2023-04-21T10:42:47.410Z,19.34
2023-04-21T10:45:08.346Z,19.14
2023-04-21T10:47:13.990Z,18.93
2023-04-21T10:49:30.435Z,18.99
2023-04-21T10:51:35.774Z,19.24
2023-04-21T10:53:47.020Z,19.44
2023-04-21T10:55:52.604Z,19.58
2023-04-21T10:57:59.297Z,19.35
2023-04-21T11:00:06.993Z,19.59
2023-04-21T11:02:15.767Z,19.85
2023-04-21T11:04:23.699Z,19.71
2023-04-21T11:06:32.892Z,19.62
2023-04-21T11:08:38.377Z,20.02
2023-04-21T11:10:56.074Z,20.21
2023-04-21T11:13:01.454Z,20.44
2023-04-21T11:15:10.273Z,20.38
2023-04-21T11:17:18.453Z,20.06
2023-04-21T11:19:25.226Z,20.16
2023-04-21T11:21:33.536Z,20.36
2023-04-21T11:23:38.591Z,21.04
2023-04-21T11:25:43.570Z,21.27
2023-04-21T11:28:00.139Z,21.52
2023-04-21T11:30:08.370Z,21.59
2023-04-21T11:32:14.256Z,22.13
2023-04-21T11:34:20.146Z,21.57
2023-04-21T11:36:25.657Z,21.30
2023-04-21T11:38:41.738Z,21.00
2023-04-21T11:40:51.629Z,20.71
2023-04-21T11:42:57.374Z,20.15
2023-04-21T11:45:02.642Z,20.01
2023-04-21T11:47:18.510Z,19.81
2023-04-21T11:49:29.504Z,19.84
2023-04-21T11:51:39.553Z,19.85
2023-04-21T11:53:49.748Z,20.01
2023-04-21T11:55:57.217Z,20.18
2023-04-21T11:58:03.575Z,20.37
2023-04-21T12:00:13.452Z,20.68
2023-04-21T12:02:26.953Z,21.15
2023-04-21T12:04:34.240Z,21.50
2023-04-21T12:06:41.038Z,21.23
2023-04-21T12:08:48.678Z,21.13
2023-04-21T12:10:53.695Z,21.33
2023-04-21T12:13:00.131Z,21.43
2023-04-21T12:15:05.367Z,21.55
2023-04-21T12:17:10.658Z,21.89
2023-04-21T12:19:26.732Z,22.13
2023-04-21T12:21:33.684Z,22.03
2023-04-21T12:23:39.315Z,22.00
2023-04-21T12:25:47.700Z,21.71
2023-04-21T12:27:53.027Z,21.34
2023-04-21T12:29:58.075Z,21.37
2023-04-21T12:32:03.677Z,21.66
2023-04-21T12:34:09.357Z,21.41
2023-04-21T12:36:14.709Z,21.23
2023-04-21T12:38:19.706Z,21.15
2023-04-21T12:40:25.047Z,21.14
2023-04-21T12:42:34.232Z,21.26
2023-04-21T12:44:41.781Z,21.24
2023-04-21T12:46:49.221Z,21.68
2023-04-21T12:48:56.185Z,21.90
2023-04-21T12:51:01.258Z,22.15
2023-04-21T12:53:06.358Z,22.36
2023-04-21T12:55:13.526Z,22.23
2023-04-21T12:57:19.261Z,21.98
2023-04-21T12:59:26.921Z,21.79
2023-04-21T13:01:32.058Z,21.60
2023-04-21T13:03:37.237Z,21.10
2023-04-21T13:05:43.779Z,20.94
2023-04-21T13:07:50.918Z,21.46
2023-04-21T13:09:55.938Z,21.77
2023-04-21T13:12:02.370Z,21.98
2023-04-21T13:14:07.566Z,22.22
2023-04-21T13:16:15.217Z,22.55
2023-04-21T13:18:20.690Z,22.48
2023-04-21T13:20:26.269Z,22.24
2023-04-21T13:22:31.424Z,21.99
2023-04-21T13:24:36.650Z,22.46
2023-04-21T13:26:41.683Z,23.42
2023-04-21T13:28:47.044Z,24.91
2023-04-21T13:30:52.463Z,26.04
2023-04-21T13:33:00.202Z,26.42
2023-04-21T13:35:09.402Z,26.52
2023-04-21T13:37:16.787Z,27.06
2023-04-21T13:39:22.180Z,26.91
2023-04-21T13:41:27.199Z,26.78
2023-04-21T13:43:32.235Z,26.87
2023-04-21T13:45:37.469Z,27.07
2023-04-21T13:47:42.886Z,27.34
2023-04-21T13:49:51.641Z,27.99
2023-04-21T13:51:57.021Z,28.34
2023-04-21T13:54:02.100Z,28.91
2023-04-21T13:56:07.316Z,28.30
2023-04-21T13:58:12.555Z,28.63
2023-04-21T14:00:19.190Z,28.77
2023-04-21T14:02:26.125Z,28.41
2023-04-21T14:04:31.524Z,29.49
2023-04-21T14:06:39.349Z,29.46
2023-04-21T14:08:44.413Z,29.10
2023-04-21T14:10:49.492Z,29.41
2023-04-21T14:12:54.847Z,30.06
2023-04-21T14:14:59.902Z,30.60
2023-04-21T14:17:04.973Z,31.01
2023-04-21T14:19:10.442Z,30.34
2023-04-21T14:21:15.609Z,29.07
2023-04-21T14:23:23.226Z,29.54
2023-04-21T14:25:28.814Z,29.93
2023-04-21T14:27:33.894Z,31.51
2023-04-21T14:29:38.928Z,31.61
2023-04-21T14:31:44.103Z,32.41
2023-04-21T14:33:49.189Z,32.83
2023-04-21T14:35:54.589Z,33.52
2023-04-21T14:38:01.499Z,33.63
2023-04-21T14:40:11.672Z,33.06
2023-04-21T14:42:16.749Z,32.03
2023-04-21T14:44:21.834Z,31.62
2023-04-21T14:46:27.063Z,30.36
2023-04-21T14:48:32.758Z,28.90
2023-04-21T14:50:37.775Z,28.73
2023-04-21T14:52:42.897Z,29.96
2023-04-21T14:54:48.312Z,28.75
2023-04-21T14:57:10.430Z,28.23
2023-04-21T14:59:23.342Z,28.51
2023-04-21T15:01:28.509Z,27.25
2023-04-21T15:03:34.034Z,26.91
2023-04-21T15:05:39.204Z,26.07
2023-04-21T15:07:44.670Z,26.71
2023-04-21T15:09:49.762Z,27.75
2023-04-21T15:11:57.508Z,28.66
2023-04-21T15:16:52.362Z,27.29
2023-04-21T15:18:57.781Z,26.47
2023-04-21T15:21:02.963Z,25.83
2023-04-21T15:23:08.098Z,25.11
2023-04-21T15:25:14.254Z,26.21
2023-04-21T15:27:21.901Z,26.41
2023-04-21T15:29:27.137Z,25.59
2023-04-21T15:31:32.227Z,24.68
2023-04-21T15:33:37.271Z,24.16
2023-04-21T15:35:42.504Z,24.06
2023-04-21T15:37:47.580Z,23.39
2023-04-21T15:39:52.807Z,22.83
2023-04-21T15:41:59.363Z,23.90
2023-04-21T15:44:07.710Z,25.58
2023-04-21T15:46:13.525Z,27.21
2023-04-21T15:48:20.510Z,28.28
2023-04-21T15:50:25.836Z,28.31
2023-04-21T15:52:31.688Z,28.18
2023-04-21T15:54:37.599Z,27.77
2023-04-21T15:56:42.838Z,27.85
2023-04-21T15:58:47.921Z,26.90
2023-04-21T16:00:55.934Z,26.08
2023-04-21T16:03:01.940Z,26.17
2023-04-21T16:05:07.989Z,25.32
2023-04-21T16:07:13.204Z,25.15
2023-04-21T16:09:18.403Z,26.46
2023-04-21T16:11:25.024Z,27.16
2023-04-21T16:13:30.448Z,26.79
2023-04-21T16:15:35.673Z,26.99
2023-04-21T16:17:43.266Z,26.88
2023-04-21T16:19:48.335Z,28.04
2023-04-21T16:21:53.864Z,28.83
2023-04-21T16:23:59.074Z,29.33
2023-04-21T16:26:06.190Z,29.93
2023-04-21T16:28:11.958Z,30.70
2023-04-21T16:30:17.258Z,30.14
2023-04-21T16:32:22.417Z,29.56
2023-04-21T16:34:30.323Z,28.08
2023-04-21T16:36:36.471Z,26.46
2023-04-21T16:38:41.481Z,26.43
2023-04-21T16:40:46.661Z,25.43
2023-04-21T16:42:51.706Z,24.42
2023-04-21T16:44:59.130Z,23.83
2023-04-21T16:47:04.402Z,23.42
2023-04-21T16:49:09.966Z,22.92
2023-04-21T16:51:17.622Z,22.52
2023-04-21T16:53:25.566Z,22.35
2023-04-21T16:55:31.582Z,22.17
2023-04-21T16:57:37.023Z,22.83
2023-04-21T16:59:42.137Z,23.41
2023-04-21T17:01:47.280Z,23.65
2023-04-21T17:03:52.477Z,23.91
2023-04-21T17:05:57.798Z,23.27
2023-04-21T17:08:06.408Z,23.13
2023-04-21T17:10:12.484Z,23.63
2023-04-21T17:12:17.796Z,23.72
2023-04-21T17:14:22.818Z,23.04
2023-04-21T17:16:28.126Z,22.84
2023-04-21T17:18:33.348Z,23.05
2023-04-21T17:20:38.671Z,22.58
2023-04-21T17:22:44.659Z,21.99
2023-04-21T17:24:54.033Z,21.59
2023-04-21T17:26:59.341Z,21.19
2023-04-21T17:29:05.234Z,20.64
2023-04-21T17:31:15.723Z,20.34
2023-04-21T17:33:21.440Z,20.13
2023-04-21T17:35:26.585Z,19.95
2023-04-21T17:37:31.992Z,19.89
2023-04-21T17:39:37.108Z,19.67
2023-04-21T17:41:46.424Z,19.48
2023-04-21T17:43:51.477Z,19.29
2023-04-21T17:45:56.575Z,19.07
2023-04-21T17:48:02.265Z,18.87
2023-04-21T17:50:09.920Z,18.74
2023-04-21T17:52:16.936Z,18.62
2023-04-21T17:54:22.396Z,18.44
2023-04-21T17:56:27.452Z,18.30
2023-04-21T17:58:35.620Z,18.17
2023-04-21T18:00:41.162Z,18.03
2023-04-21T18:02:46.531Z,17.88
2023-04-21T18:04:51.753Z,17.79
2023-04-21T18:06:56.863Z,17.70
2023-04-21T18:09:02.435Z,17.60
2023-04-21T18:11:07.615Z,17.45
2023-04-21T18:13:13.222Z,17.36
2023-04-21T18:15:21.736Z,17.21
2023-04-21T18:17:26.798Z,17.13
2023-04-21T18:19:32.303Z,16.99
2023-04-21T18:21:37.988Z,16.84
2023-04-21T18:23:43.585Z,16.70
2023-04-21T18:25:48.939Z,16.60
2023-04-21T18:27:53.989Z,16.51
2023-04-21T18:29:58.998Z,16.45
2023-04-21T18:32:06.792Z,16.35
2023-04-21T18:34:14.028Z,16.19
2023-04-21T18:36:19.045Z,16.19
2023-04-21T18:38:24.079Z,16.12
2023-04-21T18:40:29.173Z,16.08
2023-04-21T18:42:34.503Z,16.04
2023-04-21T18:44:39.825Z,15.97
2023-04-21T18:46:45.195Z,15.98
2023-04-21T18:48:53.383Z,15.92
2023-04-21T18:50:58.429Z,15.92
2023-04-21T18:53:03.502Z,15.88
2023-04-21T18:55:10.010Z,15.89
2023-04-21T18:57:15.098Z,16.00
2023-04-21T18:59:22.222Z,15.98
2023-04-21T19:01:27.869Z,15.92
2023-04-21T19:03:33.219Z,15.88
2023-04-21T19:05:41.397Z,15.81
2023-04-21T19:07:46.503Z,15.74
2023-04-21T19:09:52.272Z,15.68
2023-04-21T19:11:57.362Z,15.64
2023-04-21T19:14:02.544Z,15.59
2023-04-21T19:16:08.882Z,15.61
2023-04-21T19:18:13.982Z,15.55
2023-04-21T19:20:19.266Z,15.30
2023-04-21T19:22:27.874Z,15.06
2023-04-21T19:24:33.176Z,14.80
2023-04-21T19:26:38.242Z,14.61
2023-04-21T19:28:43.665Z,14.42
2023-04-21T19:30:48.717Z,14.21
2023-04-21T19:32:53.756Z,14.07
2023-04-21T19:34:58.919Z,13.93
2023-04-21T19:37:04.133Z,13.82
2023-04-21T19:39:11.974Z,13.64
2023-04-21T19:41:17.163Z,13.42
2023-04-21T19:43:22.812Z,13.23
2023-04-21T19:45:29.390Z,13.07
2023-04-21T19:47:36.544Z,12.87
2023-04-21T19:49:41.917Z,12.79
2023-04-21T19:51:47.085Z,12.61
2023-04-21T19:54:03.110Z,12.48
2023-04-21T19:56:18.374Z,12.25
2023-04-21T19:58:38.817Z,12.05
2023-04-21T20:00:46.584Z,11.80
2023-04-21T20:02:51.967Z,11.68
2023-04-21T20:04:57.262Z,11.59
2023-04-21T20:07:02.782Z,11.56
2023-04-21T20:09:08.304Z,11.43
2023-04-21T20:11:13.352Z,11.20
2023-04-21T20:13:21.102Z,10.99
2023-04-21T20:15:27.086Z,10.85
2023-04-21T20:17:32.674Z,10.82
2023-04-21T20:19:40.480Z,10.84
2023-04-21T20:21:46.634Z,10.80
2023-04-21T20:23:51.646Z,10.79
2023-04-21T20:25:57.418Z,10.77
2023-04-21T20:28:02.558Z,10.73
2023-04-21T20:30:11.853Z,10.57
2023-04-21T20:32:16.891Z,10.27
2023-04-21T20:34:22.065Z,10.15
2023-04-21T20:36:27.644Z,10.10
2023-04-21T20:38:34.546Z,9.99
2023-04-21T20:40:40.010Z,9.97
2023-04-21T20:42:45.281Z,9.91
2023-04-21T20:44:50.411Z,9.73
2023-04-21T20:46:58.158Z,9.70
2023-04-21T20:49:03.253Z,9.65
2023-04-21T20:51:08.781Z,9.57
2023-04-21T20:53:13.826Z,9.66
2023-04-21T20:55:19.274Z,9.62
2023-04-21T20:57:26.969Z,9.58
2023-04-21T20:59:32.127Z,9.59
2023-04-21T21:01:39.942Z,9.56
2023-04-21T21:03:48.521Z,9.45
2023-04-21T21:05:53.738Z,9.36
2023-04-21T21:07:59.537Z,9.29
2023-04-21T21:10:04.816Z,9.34
2023-04-21T21:12:09.930Z,9.45
2023-04-21T21:14:15.015Z,9.36
2023-04-21T21:16:20.966Z,9.47
2023-04-21T21:18:26.381Z,9.53
2023-04-21T21:20:34.226Z,9.55
2023-04-21T21:22:39.249Z,9.73
2023-04-21T21:24:44.868Z,9.88
2023-04-21T21:26:49.985Z,9.95
2023-04-21T21:28:55.046Z,9.91
2023-04-21T21:31:00.214Z,9.91
2023-04-21T21:33:05.287Z,9.95
2023-04-21T21:35:12.448Z,9.91
2023-04-21T21:37:20.135Z,9.84
2023-04-21T21:39:25.189Z,9.87
2023-04-21T21:41:30.273Z,9.72
2023-04-21T21:43:35.349Z,9.62
2023-04-21T21:45:40.688Z,9.59
2023-04-21T21:47:46.066Z,9.60
2023-04-21T21:49:55.047Z,9.64
2023-04-21T21:52:00.209Z,9.60
2023-04-21T21:54:09.305Z,9.60
2023-04-21T21:56:14.604Z,9.59
2023-04-21T21:58:19.742Z,9.44
2023-04-21T22:00:26.659Z,9.38
2023-04-21T22:02:32.105Z,9.27
2023-04-21T22:04:38.177Z,9.14
2023-04-21T22:06:45.427Z,9.11
2023-04-21T22:08:51.460Z,9.05
2023-04-21T22:10:59.938Z,8.86
2023-04-21T22:13:05.534Z,8.74
2023-04-21T22:15:12.271Z,8.73
2023-04-21T22:17:17.708Z,8.66
2023-04-21T22:19:22.857Z,8.75
2023-04-21T22:21:29.115Z,8.70
2023-04-21T22:23:34.320Z,8.68
2023-04-21T22:25:39.877Z,8.75
2023-04-21T22:27:47.689Z,8.65
2023-04-21T22:29:53.603Z,8.65
2023-04-21T22:31:58.928Z,8.65
2023-04-21T22:34:04.291Z,8.42
2023-04-21T22:36:10.148Z,8.26
2023-04-21T22:38:15.204Z,8.37
2023-04-21T22:40:20.288Z,8.57
2023-04-21T22:42:25.680Z,8.59
2023-04-21T22:44:33.305Z,8.58
2023-04-21T22:46:38.656Z,8.63
2023-04-21T22:48:46.790Z,8.60
2023-04-21T22:50:52.443Z,8.51
2023-04-21T22:52:57.563Z,8.40
2023-04-21T22:55:03.951Z,8.29
2023-04-21T22:57:09.214Z,8.18
2023-04-21T22:59:14.233Z,8.22
2023-04-21T23:01:22.833Z,8.13
2023-04-21T23:03:28.369Z,8.21
2023-04-21T23:05:34.128Z,8.19
2023-04-21T23:07:39.339Z,8.00
2023-04-21T23:09:44.367Z,7.96
2023-04-21T23:11:49.393Z,7.81
2023-04-21T23:13:54.869Z,7.85
2023-04-21T23:16:00.211Z,7.90
2023-04-21T23:18:08.114Z,7.87
2023-04-21T23:20:15.439Z,7.78
2023-04-21T23:22:20.606Z,7.67
2023-04-21T23:24:25.672Z,7.66
2023-04-21T23:26:31.199Z,7.64
2023-04-21T23:28:36.210Z,7.70
2023-04-21T23:30:41.242Z,7.68
2023-04-21T23:32:46.777Z,7.62
2023-04-21T23:34:54.565Z,7.60
2023-04-21T23:36:59.647Z,7.62
2023-04-21T23:39:04.704Z,7.63
2023-04-21T23:41:09.872Z,7.49
2023-04-21T23:43:14.930Z,7.54
2023-04-21T23:45:19.982Z,7.55
2023-04-21T23:47:25.508Z,7.51
2023-04-21T23:49:30.877Z,7.56
2023-04-21T23:51:38.925Z,7.53
2023-04-21T23:53:43.992Z,7.42
2023-04-21T23:55:49.222Z,7.46
2023-04-21T23:57:54.904Z,7.52
